PWSweather.com
Personal Weather Stations
Station Observations
KCTHAMDEN
Dunbar Hill, Hamden, CT 06514

Dunbar HillHamden, CT 06514

Lat: 41.365437, Lon: -72.956532

Elevation: 200

Station Type: Davis Vantage Pro2+

www.hamdenweather.com

High Low Average
Temperature 90.0°F32.2°C 62.5°F16.9°C 75.9°F24.4°C
Dew Point 75.2°F24.0°C 61.2°F16.2°C 68.8°F20.4°C
Winds 2.3 mph 3.7 kmh Calm Calm Calm SCalm S
Wind Gusts 6.0 mph9.7 kmh -- 1.0 mph1.6 kmh
Humidity 98% 51% 81%
Pressure 29.92 in1013.2 mb 29.84 in1010.5 mb -
Precipitation 0.00 in0.0 mm - -
Hour Temp Dew Point Humidity Winds Wind Gusts Pressure Precip Precip Rate Daily Precip Total
12:00 AM 67.3°F19.6°C 65.5°F18.6°C 94% Calm Calm -- 29.84 in1010.5 mb - 0.00 in0.0 mm 0.00 in0.0 mm
12:15 AM 66.9°F19.4°C 65.1°F18.4°C 94% Calm Calm -- 29.84 in1010.5 mb - 0.00 in0.0 mm 0.00 in0.0 mm
12:30 AM 66.6°F19.2°C 64.8°F18.2°C 94% Calm Calm -- 29.84 in1010.5 mb - 0.00 in0.0 mm 0.00 in0.0 mm
12:45 AM 66.5°F19.2°C 65.0°F18.3°C 95% Calm Calm -- 29.84 in1010.5 mb - 0.00 in0.0 mm 0.00 in0.0 mm
01:00 AM 66.4°F19.1°C 64.9°F18.3°C 95% Calm Calm -- 29.84 in1010.5 mb - 0.00 in0.0 mm 0.00 in0.0 mm
01:15 AM 66.1°F18.9°C 64.6°F18.1°C 95% Calm Calm -- 29.84 in1010.5 mb - 0.00 in0.0 mm 0.00 in0.0 mm
01:30 AM 65.8°F18.8°C 64.3°F17.9°C 95% Calm Calm -- 29.84 in1010.5 mb - 0.00 in0.0 mm 0.00 in0.0 mm
01:45 AM 65.5°F18.6°C 64.0°F17.8°C 95% Calm Calm -- 29.84 in1010.5 mb - 0.00 in0.0 mm 0.00 in0.0 mm
02:00 AM 65.3°F18.5°C 63.9°F17.7°C 95% Calm Calm -- 29.84 in1010.5 mb - 0.00 in0.0 mm 0.00 in0.0 mm
02:15 AM 65.1°F18.4°C 63.6°F17.6°C 95% Calm Calm -- 29.84 in1010.5 mb - 0.00 in0.0 mm 0.00 in0.0 mm
02:30 AM 64.8°F18.2°C 63.3°F17.4°C 95% Calm Calm -- 29.84 in1010.5 mb - 0.00 in0.0 mm 0.00 in0.0 mm
02:45 AM 64.5°F18.1°C 63.0°F17.2°C 95% Calm Calm -- 29.84 in1010.5 mb - 0.00 in0.0 mm 0.00 in0.0 mm
03:00 AM 64.3°F17.9°C 62.8°F17.1°C 95% Calm Calm -- 29.84 in1010.5 mb - 0.00 in0.0 mm 0.00 in0.0 mm
03:15 AM 64.1°F17.8°C 62.6°F17.0°C 95% Calm Calm -- 29.84 in1010.5 mb - 0.00 in0.0 mm 0.00 in0.0 mm
03:30 AM 63.9°F17.7°C 62.4°F16.9°C 95% Calm Calm -- 29.84 in1010.5 mb - 0.00 in0.0 mm 0.00 in0.0 mm
03:45 AM 63.7°F17.6°C 62.5°F16.9°C 96% Calm Calm -- 29.84 in1010.5 mb - 0.00 in0.0 mm 0.00 in0.0 mm
04:00 AM 63.5°F17.5°C 62.0°F16.7°C 95% Calm Calm -- 29.84 in1010.5 mb - 0.00 in0.0 mm 0.00 in0.0 mm
04:15 AM 63.2°F17.3°C 61.7°F16.5°C 95% Calm Calm -- 29.85 in1010.8 mb - 0.00 in0.0 mm 0.00 in0.0 mm
04:30 AM 63.0°F17.2°C 61.8°F16.6°C 96% Calm Calm -- 29.85 in1010.8 mb - 0.00 in0.0 mm 0.00 in0.0 mm
04:45 AM 62.7°F17.1°C 61.2°F16.2°C 95% Calm Calm -- 29.85 in1010.8 mb - 0.00 in0.0 mm 0.00 in0.0 mm
05:00 AM 62.6°F17.0°C 61.4°F16.3°C 96% Calm Calm -- 29.85 in1010.8 mb - 0.00 in0.0 mm 0.00 in0.0 mm
05:15 AM 62.5°F16.9°C 61.3°F16.3°C 96% Calm Calm -- 29.85 in1010.8 mb - 0.00 in0.0 mm 0.00 in0.0 mm
05:30 AM 62.5°F16.9°C 61.3°F16.3°C 96% Calm Calm -- 29.86 in1011.2 mb - 0.00 in0.0 mm 0.00 in0.0 mm
05:45 AM 63.3°F17.4°C 62.4°F16.9°C 97% Calm Calm -- 29.86 in1011.2 mb - 0.00 in0.0 mm 0.00 in0.0 mm
06:00 AM 63.8°F17.7°C 62.9°F17.2°C 97% Calm Calm -- 29.86 in1011.2 mb - 0.00 in0.0 mm 0.00 in0.0 mm
06:15 AM 64.3°F17.9°C 63.4°F17.4°C 97% Calm Calm -- 29.87 in1011.5 mb - 0.00 in0.0 mm 0.00 in0.0 mm
06:30 AM 65.4°F18.6°C 64.5°F18.1°C 97% Calm Calm -- 29.87 in1011.5 mb - 0.00 in0.0 mm 0.00 in0.0 mm
06:45 AM 67.1°F19.5°C 66.5°F19.2°C 98% Calm Calm -- 29.87 in1011.5 mb - 0.00 in0.0 mm 0.00 in0.0 mm
07:00 AM 68.1°F20.1°C 67.2°F19.6°C 97% Calm Calm -- 29.87 in1011.5 mb - 0.00 in0.0 mm 0.00 in0.0 mm
07:15 AM 69.5°F20.8°C 68.6°F20.3°C 97% Calm Calm -- 29.88 in1011.9 mb - 0.00 in0.0 mm 0.00 in0.0 mm
07:30 AM 70.9°F21.6°C 69.7°F20.9°C 96% 0.2 mph SW0.3 kmh SW 1.0 mph1.6 kmh 29.88 in1011.9 mb - 0.00 in0.0 mm 0.00 in0.0 mm
07:45 AM 72.8°F22.7°C 70.4°F21.3°C 92% 0.1 mph SW0.2 kmh SW 2.0 mph3.2 kmh 29.88 in1011.9 mb - 0.00 in0.0 mm 0.00 in0.0 mm
08:00 AM 75.1°F23.9°C 70.6°F21.4°C 86% 0.2 mph WSW0.3 kmh WSW 1.0 mph1.6 kmh 29.88 in1011.9 mb - 0.00 in0.0 mm 0.00 in0.0 mm
08:15 AM 76.3°F24.6°C 70.4°F21.3°C 82% Calm Calm -- 29.89 in1012.2 mb - 0.00 in0.0 mm 0.00 in0.0 mm
08:30 AM 78.4°F25.8°C 71.4°F21.9°C 79% 0.2 mph NE0.3 kmh NE 1.0 mph1.6 kmh 29.89 in1012.2 mb - 0.00 in0.0 mm 0.00 in0.0 mm
08:45 AM 80.0°F26.7°C 69.7°F20.9°C 71% 1.0 mph SSW1.6 kmh SSW 1.0 mph1.6 kmh 29.89 in1012.2 mb - 0.00 in0.0 mm 0.00 in0.0 mm
09:00 AM 81.1°F27.3°C 68.7°F20.4°C 66% 1.0 mph S1.6 kmh S 1.0 mph1.6 kmh 29.89 in1012.2 mb - 0.00 in0.0 mm 0.00 in0.0 mm
09:15 AM 82.0°F27.8°C 69.1°F20.6°C 65% 1.9 mph SSW3.1 kmh SSW 3.0 mph4.8 kmh 29.89 in1012.2 mb - 0.00 in0.0 mm 0.00 in0.0 mm
09:30 AM 82.7°F28.2°C 69.8°F21.0°C 65% 1.7 mph S2.7 kmh S 2.0 mph3.2 kmh 29.88 in1011.9 mb - 0.00 in0.0 mm 0.00 in0.0 mm
09:45 AM 83.9°F28.8°C 71.3°F21.8°C 66% 1.4 mph NNE2.3 kmh NNE 3.0 mph4.8 kmh 29.88 in1011.9 mb - 0.00 in0.0 mm 0.00 in0.0 mm
10:00 AM 83.9°F28.8°C 69.0°F20.6°C 61% 0.4 mph W0.6 kmh W 2.0 mph3.2 kmh 29.89 in1012.2 mb - 0.00 in0.0 mm 0.00 in0.0 mm
10:15 AM 83.9°F28.8°C 69.5°F20.8°C 62% 2.1 mph WSW3.4 kmh WSW 3.0 mph4.8 kmh 29.89 in1012.2 mb - 0.00 in0.0 mm 0.00 in0.0 mm
10:30 AM 84.4°F29.1°C 72.7°F22.6°C 68% 1.6 mph NE2.6 kmh NE 3.0 mph4.8 kmh 29.88 in1011.9 mb - 0.00 in0.0 mm 0.00 in0.0 mm
10:45 AM 85.5°F29.7°C 69.0°F20.6°C 58% 1.8 mph S2.9 kmh S 4.0 mph6.4 kmh 29.88 in1011.9 mb - 0.00 in0.0 mm 0.00 in0.0 mm
11:00 AM 86.1°F30.1°C 69.6°F20.9°C 58% 1.1 mph ESE1.8 kmh ESE 2.0 mph3.2 kmh 29.88 in1011.9 mb - 0.00 in0.0 mm 0.00 in0.0 mm
11:15 AM 85.8°F29.9°C 69.3°F20.7°C 58% 1.0 mph S1.6 kmh S 2.0 mph3.2 kmh 29.88 in1011.9 mb - 0.00 in0.0 mm 0.00 in0.0 mm
11:30 AM 86.1°F30.1°C 70.6°F21.4°C 60% 2.0 mph S3.2 kmh S 4.0 mph6.4 kmh 29.88 in1011.9 mb - 0.00 in0.0 mm 0.00 in0.0 mm
11:45 AM 87.1°F30.6°C 69.0°F20.6°C 55% 0.8 mph N1.3 kmh N 2.0 mph3.2 kmh 29.88 in1011.9 mb - 0.00 in0.0 mm 0.00 in0.0 mm
12:00 PM 86.9°F30.5°C 71.9°F22.2°C 61% 0.2 mph WSW0.3 kmh WSW 1.0 mph1.6 kmh 29.88 in1011.9 mb - 0.00 in0.0 mm 0.00 in0.0 mm
12:15 PM 87.0°F30.6°C 71.0°F21.7°C 59% 0.4 mph S0.6 kmh S 2.0 mph3.2 kmh 29.88 in1011.9 mb - 0.00 in0.0 mm 0.00 in0.0 mm
12:30 PM 87.3°F30.7°C 72.2°F22.3°C 61% 0.4 mph SE0.6 kmh SE 2.0 mph3.2 kmh 29.88 in1011.9 mb - 0.00 in0.0 mm 0.00 in0.0 mm
12:45 PM 87.3°F30.7°C 70.2°F21.2°C 57% 2.0 mph 3.2 kmh 6.0 mph9.7 kmh 29.88 in1011.9 mb - 0.00 in0.0 mm 0.00 in0.0 mm
01:00 PM 87.6°F30.9°C 72.0°F22.2°C 60% 1.5 mph S2.4 kmh S 2.0 mph3.2 kmh 29.88 in1011.9 mb - 0.00 in0.0 mm 0.00 in0.0 mm
01:15 PM 88.2°F31.2°C 72.1°F22.3°C 59% 1.7 mph SSW2.7 kmh SSW 2.0 mph3.2 kmh 29.87 in1011.5 mb - 0.00 in0.0 mm 0.00 in0.0 mm
01:30 PM 88.0°F31.1°C 70.3°F21.3°C 56% 1.0 mph SW1.6 kmh SW 2.0 mph3.2 kmh 29.87 in1011.5 mb - 0.00 in0.0 mm 0.00 in0.0 mm
01:45 PM 87.8°F31.0°C 71.2°F21.8°C 58% 1.2 mph SW1.9 kmh SW 2.0 mph3.2 kmh 29.87 in1011.5 mb - 0.00 in0.0 mm 0.00 in0.0 mm
02:00 PM 88.6°F31.4°C 70.4°F21.3°C 55% 2.3 mph SSW3.7 kmh SSW 3.0 mph4.8 kmh 29.87 in1011.5 mb - 0.00 in0.0 mm 0.00 in0.0 mm
02:15 PM 89.4°F31.9°C 68.9°F20.5°C 51% 1.4 mph NNE2.3 kmh NNE 3.0 mph4.8 kmh 29.86 in1011.2 mb - 0.00 in0.0 mm 0.00 in0.0 mm
02:30 PM 90.0°F32.2°C 72.7°F22.6°C 57% 0.1 mph N0.2 kmh N 1.0 mph1.6 kmh 29.86 in1011.2 mb - 0.00 in0.0 mm 0.00 in0.0 mm
02:45 PM 89.1°F31.7°C 69.2°F20.7°C 52% 1.1 mph SSW1.8 kmh SSW 3.0 mph4.8 kmh 29.86 in1011.2 mb - 0.00 in0.0 mm 0.00 in0.0 mm
03:00 PM 87.7°F30.9°C 72.1°F22.3°C 60% Calm Calm -- 29.86 in1011.2 mb - 0.00 in0.0 mm 0.00 in0.0 mm
03:15 PM 86.7°F30.4°C 72.6°F22.6°C 63% Calm Calm -- 29.86 in1011.2 mb - 0.00 in0.0 mm 0.00 in0.0 mm
03:30 PM 86.1°F30.1°C 75.2°F24.0°C 70% Calm Calm -- 29.86 in1011.2 mb - 0.00 in0.0 mm 0.00 in0.0 mm
03:45 PM 85.4°F29.7°C 74.1°F23.4°C 69% Calm Calm -- 29.86 in1011.2 mb - 0.00 in0.0 mm 0.00 in0.0 mm
04:00 PM 84.4°F29.1°C 72.7°F22.6°C 68% 0.3 mph SSW0.5 kmh SSW -- 29.86 in1011.2 mb - 0.00 in0.0 mm 0.00 in0.0 mm
04:15 PM 85.6°F29.8°C 73.4°F23.0°C 67% Calm Calm -- 29.85 in1010.8 mb - 0.00 in0.0 mm 0.00 in0.0 mm
04:30 PM 86.1°F30.1°C 72.0°F22.2°C 63% Calm Calm -- 29.86 in1011.2 mb - 0.00 in0.0 mm 0.00 in0.0 mm
04:45 PM 84.9°F29.4°C 74.0°F23.3°C 70% Calm Calm -- 29.86 in1011.2 mb - 0.00 in0.0 mm 0.00 in0.0 mm
05:00 PM 83.8°F28.8°C 73.0°F22.8°C 70% Calm Calm -- 29.86 in1011.2 mb - 0.00 in0.0 mm 0.00 in0.0 mm
05:15 PM 83.0°F28.3°C 73.9°F23.3°C 74% Calm Calm -- 29.86 in1011.2 mb - 0.00 in0.0 mm 0.00 in0.0 mm
05:30 PM 82.1°F27.8°C 73.0°F22.8°C 74% Calm Calm -- 29.86 in1011.2 mb - 0.00 in0.0 mm 0.00 in0.0 mm
05:45 PM 81.1°F27.3°C 72.8°F22.7°C 76% Calm Calm -- 29.86 in1011.2 mb - 0.00 in0.0 mm 0.00 in0.0 mm
06:00 PM 80.5°F26.9°C 73.4°F23.0°C 79% Calm Calm -- 29.86 in1011.2 mb - 0.00 in0.0 mm 0.00 in0.0 mm
06:15 PM 79.8°F26.6°C 72.7°F22.6°C 79% Calm Calm -- 29.86 in1011.2 mb - 0.00 in0.0 mm 0.00 in0.0 mm
06:30 PM 79.0°F26.1°C 72.3°F22.4°C 80% Calm Calm -- 29.86 in1011.2 mb - 0.00 in0.0 mm 0.00 in0.0 mm
06:45 PM 78.1°F25.6°C 72.2°F22.3°C 82% Calm Calm -- 29.87 in1011.5 mb - 0.00 in0.0 mm 0.00 in0.0 mm
07:00 PM 77.2°F25.1°C 71.7°F22.1°C 83% Calm Calm -- 29.87 in1011.5 mb - 0.00 in0.0 mm 0.00 in0.0 mm
07:15 PM 76.5°F24.7°C 71.3°F21.8°C 84% Calm Calm -- 29.88 in1011.9 mb - 0.00 in0.0 mm 0.00 in0.0 mm
07:30 PM 75.8°F24.3°C 71.0°F21.7°C 85% Calm Calm -- 29.88 in1011.9 mb - 0.00 in0.0 mm 0.00 in0.0 mm
07:45 PM 75.4°F24.1°C 70.9°F21.6°C 86% Calm Calm -- 29.88 in1011.9 mb - 0.00 in0.0 mm 0.00 in0.0 mm
08:00 PM 75.0°F23.9°C 70.5°F21.4°C 86% Calm Calm -- 29.89 in1012.2 mb - 0.00 in0.0 mm 0.00 in0.0 mm
08:15 PM 74.5°F23.6°C 70.4°F21.3°C 87% Calm Calm -- 29.90 in1012.5 mb - 0.00 in0.0 mm 0.00 in0.0 mm
08:30 PM 74.1°F23.4°C 70.3°F21.3°C 88% Calm Calm -- 29.90 in1012.5 mb - 0.00 in0.0 mm 0.00 in0.0 mm
08:45 PM 73.8°F23.2°C 70.4°F21.3°C 89% Calm Calm -- 29.90 in1012.5 mb - 0.00 in0.0 mm 0.00 in0.0 mm
09:00 PM 73.6°F23.1°C 70.5°F21.4°C 90% Calm Calm -- 29.91 in1012.9 mb - 0.00 in0.0 mm 0.00 in0.0 mm
09:15 PM 73.4°F23.0°C 70.3°F21.3°C 90% Calm Calm -- 29.91 in1012.9 mb - 0.00 in0.0 mm 0.00 in0.0 mm
09:30 PM 73.4°F23.0°C 70.3°F21.3°C 90% Calm Calm -- 29.91 in1012.9 mb - 0.00 in0.0 mm 0.00 in0.0 mm
09:45 PM 73.3°F22.9°C 70.2°F21.2°C 90% Calm Calm -- 29.91 in1012.9 mb - 0.00 in0.0 mm 0.00 in0.0 mm
10:00 PM 73.2°F22.9°C 70.4°F21.3°C 91% Calm Calm -- 29.91 in1012.9 mb - 0.00 in0.0 mm 0.00 in0.0 mm
10:15 PM 73.1°F22.8°C 70.3°F21.3°C 91% Calm Calm -- 29.92 in1013.2 mb - 0.00 in0.0 mm 0.00 in0.0 mm
10:30 PM 73.1°F22.8°C 70.6°F21.4°C 92% Calm Calm -- 29.91 in1012.9 mb - 0.00 in0.0 mm 0.00 in0.0 mm
10:45 PM 73.1°F22.8°C 70.6°F21.4°C 92% Calm Calm -- 29.92 in1013.2 mb - 0.00 in0.0 mm 0.00 in0.0 mm
11:00 PM 73.1°F22.8°C 70.6°F21.4°C 92% Calm Calm -- 29.92 in1013.2 mb - 0.00 in0.0 mm 0.00 in0.0 mm
11:15 PM 73.0°F22.8°C 70.5°F21.4°C 92% Calm Calm -- 29.92 in1013.2 mb - 0.00 in0.0 mm 0.00 in0.0 mm
11:30 PM 73.0°F22.8°C 70.9°F21.6°C 93% Calm Calm -- 29.92 in1013.2 mb - 0.00 in0.0 mm 0.00 in0.0 mm
11:45 PM 73.0°F22.8°C 70.9°F21.6°C 93% Calm Calm -- 29.92 in1013.2 mb - 0.00 in0.0 mm 0.00 in0.0 mm